ADDS TAF Data INFO
IDs: Format: Raw Decoded Include METARs

Data at: 2230 UTC 11 Dec 2017

METAR for:KDHN (Dothan Rgnl, AL, US)
Text:KDHN 112153Z 24010KT 10SM CLR 17/01 A3014 RMK AO2 SLP205 T01670011 $
Temperature: 16.7°C ( 62°F)
Dewpoint: 1.1°C ( 34°F) [RH = 35%]
Pressure (altimeter):30.14 inches Hg (1020.7 mb) [Sea level pressure: 1020.5 mb]
Winds:from the WSW (240 degrees) at 12 MPH (10 knots; 5.1 m/s)
Visibility:10 or more sm (16+ km)
Ceiling:at least 12,000 feet AGL
Clouds:sky clear below 12,000 feet AGL
QC Flag:SOME DATA ABOVE MAY BE INACCURATE!!!"$" is an indication the sensor requires maintenance.

TAF for:KDHN (Dothan Rgnl, AL, US) issued at 1720 UTC 11 Dec 2017
Text:KDHN 111720Z 1118/1218 24006KT P6SM SKC
Forecast period:1800 UTC 11 December 2017 to 1400 UTC 12 December 2017
Forecast type:FROM: standard forecast or significant change
Winds:from the WSW (240 degrees) at 7 MPH (6 knots; 3.1 m/s)
Visibility:6 or more sm (10+ km)
Ceiling:at least 12,000 feet AGL
Clouds:clear skies
Text:FM121400 32012G20KT P6SM SKC
Forecast period:1400 to 1800 UTC 12 December 2017
Forecast type:FROM: standard forecast or significant change
Winds:from the NW (320 degrees) at 14 MPH (12 knots; 6.2 m/s) gusting to 23 MPH (20 knots; 10.3 m/s)
Visibility:6 or more sm (10+ km)
Ceiling:at least 12,000 feet AGL
Clouds:clear skies